Meath Environmental Platform

Observations

Time Sensor AQI SAQ Temp °C Hum % Pres Pa CO μg/m³ H₂S μg/m³ NO μg/m³ NO₂ μg/m³ O₃ μg/m³ SO₂ μg/m³ CO₂e PPM VOC PPM PM1 μg/m³ PM2.5 μg/m³ PM4 μg/m³ PM10 μg/m³ TPS µm
Wednesday 12 August 2026
19:09 Trim Market St 3 31.6 37 66,244 0 7.86 0.31 15.89 91.19 0 2.14 4.63 5.09
19:08 Trim Patrick St 4 33.3 35 69,499 0 43.37 0.18 29.34 91.72 25.37 6.29 12.13 13.34
19:08 Trim Market St 3 31.7 36 66,280 0 7.02 0.32 17.05 93.01 0 2.14 5.7 7.53
19:07 Trim Patrick St 4 33.4 35 69,521 0 40.7 0.19 37.34 70.64 24.91 5.43 11.36 12.5
19:06 Trim Patrick St 4 33.6 35 69,549 0 43.52 0.17 27.59 91.09 25.13 4.57 11.36 12.49
19:06 Trim Market St 3 31.8 36 66,284 0 7.06 0.31 15.77 86.52 0 2.85 6.25 7.53
19:05 Trim Patrick St 4 33.7 34 69,551 0 47.2 0.14 52.6 62.96 24.62 5.43 12.18 13.4
19:05 Trim Market St 3 31.9 36 66,301 0 6.92 0.32 17.1 86.92 0 0.71 4.12 5.87
19:04 Trim Patrick St 4 33.8 34 69,555 0 41.35 0.13 53.9 66.48 24.35 3.71 9.8 10.78
19:04 Trim Market St 3 31.9 36 66,321 0 6.49 0.29 15.95 84.07 0 1.43 5.19 5.71
19:03 Trim Patrick St 4 34 34 69,585 0 38.86 0.18 28.23 95.9 25.47 4.57 10.61 11.67
19:03 Trim Market St 3 32 36 66,317 0 5.06 0.27 15.59 87.79 0 3.56 5.73 5.87
19:02 Trim Patrick St 4 34.2 34 69,597 0 36.77 0.14 19.42 111.76 25.94 4.57 11.45 12.59
19:02 Trim Market St 3 32.1 36 66,343 0 5.37 0.26 14.82 81.73 0 1.43 4.67 5.03
19:01 Trim Patrick St 4 34.3 34 69,616 0 35.6 0.17 19.51 98.42 25.28 4.57 10.65 11.71
19:00 Trim Patrick St 4 34.4 33 69,634 0 33.87 0.18 18.98 96.1 25.53 3.71 10.66 11.73
19:00 Trim Market St 3 32.2 36 66,343 0 5.26 0.26 18.65 80.89 0 2.85 5.21 5.73
18:59 Trim Patrick St 4 34.5 33 69,628 0 33.35 0.17 14.96 102.96 25.79 4.57 9.88 10.86
18:58 Trim Patrick St 4 34.7 33 69,620 0 40.89 0.1 16.77 117.45 27.66 3.71 10.67 11.74
18:57 Trim Patrick St 4 34.8 33 69,636 0 32.68 0.13 16.03 100.68 25.35 3.71 10.69 11.76